»·PEaware :: N861TB KBFL-KMHV

N861TB :: KBFL-KMHV

FLIGHT INFORMATION

Flight Status: Arrived
Operator: Privately registered:
United States
More flights under this callsign
Pilot: Jan C. (16843)
Aircraft: PIPER PA-28 CHEROKEE ARCHER
(PA28)
More flights by this aircraft type
Origin: KBFL Meadows
United States
Destination: KMHV Mojave
United States
More flights between these airports :: More routes between these airports
Route: +
File this flight plan on PilotEdge
Remarks: FF
Altitude:
(Current/Filed)
7,500ft
Speed:
(Current/Filed)
115kts
Departed: 28-Dec-17 11:44 AM
Arrived: 28-Dec-17 12:15 PM
Distance/Time
Traveled:
50nm/0:31
Distance/Time
To Go:
Arrived

Flight Plot

Page will automatically refresh every two minutes.


Map Options




Map Legend


Flown Route
Filed Route
Departure Airport
Arrival Airport
Navaid (VOR, NDB)
Fix

Horizontal Profiles

Position Reports

Time Latitude Longitude Heading Altitude Ground
Speed
28-Dec-17 11:35 35.429371 -119.046102 225 498ft 0kts
28-Dec-17 11:36 35.429371 -119.046102 225 498ft 0kts
28-Dec-17 11:37 35.429371 -119.046102 225 498ft 0kts
28-Dec-17 11:38 35.429371 -119.046102 225 498ft 0kts
28-Dec-17 11:39 35.429371 -119.046102 225 498ft 0kts
28-Dec-17 11:40 35.429371 -119.046102 225 498ft 0kts
28-Dec-17 11:41 35.429371 -119.046102 225 498ft 0kts
28-Dec-17 11:42 35.429371 -119.046102 225 498ft 0kts
28-Dec-17 11:43 35.429371 -119.046102 225 498ft 0kts
28-Dec-17 11:44 35.429371 -119.046102 225 498ft 0kts
28-Dec-17 11:45 35.429371 -119.046102 225 498ft 0kts
28-Dec-17 11:46 35.429250 -119.046112 161 498ft 4kts
28-Dec-17 11:47 35.425665 -119.044781 235 498ft 0kts
28-Dec-17 11:48 35.425664 -119.044782 235 498ft 0kts
28-Dec-17 11:49 35.425664 -119.044782 235 498ft 0kts
28-Dec-17 11:50 35.432840 -119.055410 311 756ft 101kts
28-Dec-17 11:51 35.455256 -119.084832 326 1542ft 133kts
28-Dec-17 11:52 35.468107 -119.057289 118 2110ft 133kts
28-Dec-17 11:53 35.447055 -119.024610 138 3198ft 117kts
28-Dec-17 11:54 35.429795 -118.993022 121 4454ft 107kts
28-Dec-17 11:55 35.412927 -118.962863 126 5633ft 111kts
28-Dec-17 11:56 35.394855 -118.931823 119 6684ft 114kts
28-Dec-17 11:57 35.381472 -118.896605 111 7598ft 119kts
28-Dec-17 11:58 35.367014 -118.858157 119 7795ft 133kts
28-Dec-17 11:59 35.347085 -118.817017 123 7520ft 143kts
28-Dec-17 12:00 35.327036 -118.776059 121 7524ft 142kts
28-Dec-17 12:01 35.307641 -118.736260 117 7623ft 136kts
28-Dec-17 12:02 35.289719 -118.695533 119 7511ft 134kts
28-Dec-17 12:03 35.274229 -118.655719 115 7658ft 127kts
28-Dec-17 12:04 35.257912 -118.617545 121 7787ft 129kts
28-Dec-17 12:05 35.238678 -118.579850 126 7755ft 131kts
28-Dec-17 12:06 35.219733 -118.541723 122 7773ft 128kts
28-Dec-17 12:07 35.201442 -118.504927 127 7851ft 124kts
28-Dec-17 12:08 35.179409 -118.469268 126 7649ft 137kts
28-Dec-17 12:09 35.162133 -118.429684 115 7596ft 132kts
28-Dec-17 12:10 35.151657 -118.387020 107 7704ft 125kts
28-Dec-17 12:11 35.141266 -118.345337 113 7722ft 132kts
28-Dec-17 12:12 35.128854 -118.302612 113 6948ft 136kts
28-Dec-17 12:13 35.112730 -118.262711 116 5913ft 126kts
28-Dec-17 12:14 35.100584 -118.228148 117 4976ft 94kts
28-Dec-17 12:15 35.086412 -118.201700 123 3867ft 89kts
28-Dec-17 12:16 35.076671 -118.176249 83 3666ft 84kts
28-Dec-17 12:17 35.077859 -118.150846 88 3476ft 70kts
28-Dec-17 12:18 35.078856 -118.128121 107 3369ft 68kts
28-Dec-17 12:19 35.060840 -118.129298 225 2977ft 67kts
28-Dec-17 12:20 35.059188 -118.151017 272 2768ft 44kts
28-Dec-17 12:21 35.058119 -118.157817 185 2768ft 0kts
28-Dec-17 12:22 35.058011 -118.157826 181 2768ft 0kts
28-Dec-17 12:23 35.058011 -118.157826 181 2768ft 0kts
28-Dec-17 12:24 35.057971 -118.157828 180 2768ft 3kts
28-Dec-17 12:25 35.057001 -118.156439 175 2768ft 0kts
28-Dec-17 12:26 35.057001 -118.156439 175 2768ft 0kts
28-Dec-17 12:27 35.057001 -118.156439 175 2768ft 0kts
28-Dec-17 12:28 35.057001 -118.156439 175 2768ft 0kts
28-Dec-17 12:29 35.057001 -118.156439 175 2768ft 0kts
28-Dec-17 12:30 35.057001 -118.156439 175 2768ft 0kts
28-Dec-17 12:31 35.057001 -118.156439 175 2768ft 0kts
28-Dec-17 12:32 35.057001 -118.156439 175 2768ft 0kts
28-Dec-17 12:33 35.057001 -118.156439 175 2768ft 0kts

Navigation Log

Ident Type
1. KBFL Airport
2. KMHV Airport